HKJK

Jomo Kenyatta International Airport

Nairobi, Kenya

HKJK 110830Z 06014KT 9999 SCT023 21/12 Q1023

Observed Flight Rules
Dec-11 @ 08:30 UTC (55 minutes ago) Visual Flight Rules
Wind Visibility Clouds
60° at 14 knots 10,000+ meters
  • Scattered at 2,300' AGL
Temperatures Readings
Current 21°C / 70°F
Dewpoint 12°C / 54°F
Humidity 57%
Altimeter 30.21" Hg
Pressure 1023 hPa
Elevation 1624
Observed Flight Rules
Dec-11 @ 08:30 UTC
(55 minutes ago)
VFR
Wind Visibility
60° at 14 knots 10,000+ meters
Clouds
  • Scattered at 2,300' AGL
Temperature Dewpoint
21°C / 70°F 12°C / 54°F
Humidity Altimeter Pressure
57% 30.21" Hg 1023 hPa